createdAt,value
2023-01-09T00:00:19.311Z,9.90
2023-01-09T00:02:45.763Z,9.68
2023-01-09T00:05:13.481Z,10.32
2023-01-09T00:07:39.807Z,10.90
2023-01-09T00:10:06.761Z,11.05
2023-01-09T00:12:33.499Z,11.45
2023-01-09T00:14:59.797Z,11.80
2023-01-09T00:17:26.561Z,10.98
2023-01-09T00:19:53.915Z,11.57
2023-01-09T00:22:20.415Z,12.40
2023-01-09T00:24:47.046Z,11.75
2023-01-09T00:27:14.274Z,12.02
2023-01-09T00:29:42.038Z,11.98
2023-01-09T00:32:10.282Z,11.52
2023-01-09T00:34:37.648Z,11.18
2023-01-09T00:37:04.263Z,10.70
2023-01-09T00:39:30.710Z,11.43
2023-01-09T00:41:58.523Z,11.60
2023-01-09T00:44:31.861Z,10.45
2023-01-09T00:47:01.151Z,11.35
2023-01-09T00:49:32.571Z,11.38
2023-01-09T00:51:58.989Z,11.52
2023-01-09T00:54:26.155Z,11.77
2023-01-09T00:56:52.530Z,11.15
2023-01-09T00:59:18.915Z,10.88
2023-01-09T01:01:45.341Z,10.75
2023-01-09T01:04:30.609Z,11.00
2023-01-09T01:07:15.581Z,12.52
2023-01-09T01:09:41.911Z,13.90
2023-01-09T01:12:08.655Z,14.32
2023-01-09T01:14:35.736Z,14.65
2023-01-09T01:17:02.461Z,13.32
2023-01-09T01:19:28.848Z,13.30
2023-01-09T01:21:55.496Z,12.98
2023-01-09T01:24:21.786Z,12.43
2023-01-09T01:26:48.337Z,10.10
2023-01-09T01:29:14.716Z,8.05
2023-01-09T01:31:41.055Z,8.02
2023-01-09T01:34:07.421Z,7.50
2023-01-09T01:36:34.218Z,7.85
2023-01-09T01:39:00.549Z,7.20
2023-01-09T01:41:30.047Z,6.53
2023-01-09T01:44:03.682Z,6.35
2023-01-09T01:46:30.914Z,5.88
2023-01-09T01:49:03.346Z,5.40
2023-01-09T01:51:30.730Z,5.43
2023-01-09T01:53:59.753Z,4.72
2023-01-09T01:56:42.899Z,4.90
2023-01-09T01:59:11.487Z,5.10
2023-01-09T02:01:41.160Z,5.05
2023-01-09T02:04:07.949Z,5.75
2023-01-09T02:06:34.709Z,6.70
2023-01-09T02:09:02.840Z,7.28
2023-01-09T02:11:29.198Z,6.85
2023-01-09T02:13:55.563Z,7.78
2023-01-09T02:16:39.096Z,8.15
2023-01-09T02:19:16.197Z,7.20
2023-01-09T02:22:01.282Z,6.90
2023-01-09T02:24:36.830Z,7.07
2023-01-09T02:27:32.622Z,6.03
2023-01-09T02:30:04.720Z,6.85
2023-01-09T02:32:34.666Z,5.65
2023-01-09T02:35:14.516Z,3.80
2023-01-09T02:37:45.035Z,3.70
2023-01-09T02:40:11.354Z,4.57
2023-01-09T02:42:39.672Z,4.65
2023-01-09T02:45:06.089Z,4.13
2023-01-09T02:47:37.354Z,3.97
2023-01-09T02:50:05.103Z,3.90
2023-01-09T02:52:45.249Z,3.50
2023-01-09T02:55:18.510Z,3.67
2023-01-09T02:57:54.080Z,3.50
2023-01-09T03:00:32.704Z,3.25
2023-01-09T03:03:07.591Z,3.08
2023-01-09T03:05:40.939Z,3.20
2023-01-09T03:08:13.561Z,2.53
2023-01-09T03:10:48.406Z,2.80
2023-01-09T03:13:17.123Z,2.50
2023-01-09T03:15:44.343Z,2.65
2023-01-09T03:18:11.575Z,2.53
2023-01-09T03:20:38.714Z,2.65
2023-01-09T03:23:06.196Z,2.50
2023-01-09T03:25:33.025Z,2.88
2023-01-09T03:28:04.270Z,2.30
2023-01-09T03:30:31.599Z,2.63
2023-01-09T03:32:58.294Z,2.30
2023-01-09T03:35:24.826Z,2.42
2023-01-09T03:37:51.753Z,2.00
2023-01-09T03:40:19.205Z,1.63
2023-01-09T03:42:45.631Z,1.58
2023-01-09T03:45:13.140Z,1.63
2023-01-09T03:47:39.551Z,1.70
2023-01-09T03:50:06.244Z,1.80
2023-01-09T03:52:32.623Z,1.70
2023-01-09T03:54:58.910Z,1.63
2023-01-09T03:57:25.545Z,1.70
2023-01-09T03:59:51.849Z,1.50
2023-01-09T04:02:18.176Z,1.42
2023-01-09T04:04:44.613Z,1.30
2023-01-09T04:07:10.996Z,1.27
2023-01-09T04:09:37.320Z,1.10
2023-01-09T04:12:03.726Z,1.05
2023-01-09T04:14:30.057Z,1.00
2023-01-09T04:16:56.390Z,0.95
2023-01-09T04:19:22.710Z,0.93
2023-01-09T04:21:49.064Z,1.02
2023-01-09T04:24:15.374Z,1.00
2023-01-09T04:26:41.683Z,1.00
2023-01-09T04:29:08.080Z,0.60
2023-01-09T04:31:34.449Z,0.93
2023-01-09T04:34:00.835Z,0.82
2023-01-09T04:36:27.200Z,0.85
2023-01-09T04:38:53.506Z,0.65
2023-01-09T04:41:48.855Z,0.73
2023-01-09T04:44:19.059Z,0.65
2023-01-09T04:46:45.714Z,0.60
2023-01-09T04:49:12.113Z,0.60
2023-01-09T04:51:38.457Z,0.73
2023-01-09T04:54:04.844Z,0.60
2023-01-09T04:56:31.173Z,0.70
2023-01-09T04:58:57.729Z,0.63
2023-01-09T05:01:24.189Z,0.60
2023-01-09T05:03:50.613Z,0.70
2023-01-09T05:06:16.968Z,0.60
2023-01-09T05:08:43.314Z,0.70
2023-01-09T05:11:09.610Z,0.63
2023-01-09T05:13:35.943Z,0.65
2023-01-09T05:16:02.481Z,0.57
2023-01-09T05:18:28.807Z,0.70
2023-01-09T05:20:55.112Z,1.23
2023-01-09T05:23:21.410Z,1.58
2023-01-09T05:25:47.746Z,1.30
2023-01-09T05:28:14.148Z,0.93
2023-01-09T05:30:40.488Z,0.88
2023-01-09T05:33:06.831Z,0.77
2023-01-09T05:35:33.129Z,0.90
2023-01-09T05:37:59.510Z,0.75
2023-01-09T05:40:29.277Z,0.70
2023-01-09T05:42:58.596Z,0.90
2023-01-09T05:45:25.030Z,0.93
2023-01-09T05:47:51.438Z,0.90
2023-01-09T05:50:17.754Z,1.40
2023-01-09T05:52:44.105Z,1.33
2023-01-09T05:55:11.848Z,1.30
2023-01-09T05:57:38.213Z,1.20
2023-01-09T06:00:04.896Z,1.30
2023-01-09T06:02:33.363Z,1.50
2023-01-09T06:04:59.748Z,1.30
2023-01-09T06:07:26.151Z,1.23
2023-01-09T06:09:52.505Z,1.20
2023-01-09T06:12:18.967Z,1.70
2023-01-09T06:14:45.274Z,1.38
2023-01-09T06:17:11.842Z,1.10
2023-01-09T06:19:38.142Z,1.10
2023-01-09T06:22:04.507Z,1.13
2023-01-09T06:24:30.814Z,1.42
2023-01-09T06:26:57.133Z,1.50
2023-01-09T06:29:23.457Z,1.85
2023-01-09T06:31:49.808Z,1.52
2023-01-09T06:34:16.072Z,1.88
2023-01-09T06:36:42.418Z,1.98
2023-01-09T06:39:08.753Z,1.67
2023-01-09T06:41:35.289Z,1.45
2023-01-09T06:44:01.587Z,1.45
2023-01-09T06:46:27.910Z,1.55
2023-01-09T06:48:54.258Z,1.15
2023-01-09T06:51:20.589Z,1.30
2023-01-09T06:53:46.935Z,1.27
2023-01-09T06:56:13.278Z,1.33
2023-01-09T06:58:39.575Z,1.35
2023-01-09T07:01:05.962Z,1.30
2023-01-09T07:03:33.746Z,1.50
2023-01-09T07:06:00.247Z,1.23
2023-01-09T07:08:26.636Z,1.17
2023-01-09T07:10:52.944Z,1.77
2023-01-09T07:13:19.289Z,1.55
2023-01-09T07:15:45.680Z,1.40
2023-01-09T07:18:12.027Z,1.38
2023-01-09T07:20:39.650Z,1.30
2023-01-09T07:23:06.085Z,1.55
2023-01-09T07:25:32.376Z,1.42
2023-01-09T07:27:58.683Z,1.25
2023-01-09T07:30:25.067Z,1.92
2023-01-09T07:32:51.344Z,1.50
2023-01-09T07:35:17.736Z,1.63
2023-01-09T07:37:44.073Z,1.83
2023-01-09T07:40:10.620Z,1.60
2023-01-09T07:42:36.985Z,1.75
2023-01-09T07:45:03.517Z,1.75
2023-01-09T07:47:29.912Z,1.70
2023-01-09T07:49:56.310Z,2.10
2023-01-09T07:52:22.957Z,1.98
2023-01-09T07:54:49.339Z,2.22
2023-01-09T07:57:15.699Z,1.83
2023-01-09T07:59:42.019Z,2.25
2023-01-09T08:02:09.349Z,2.20
2023-01-09T08:04:35.689Z,2.20
2023-01-09T08:07:03.251Z,2.63
2023-01-09T08:09:30.049Z,2.17
2023-01-09T08:11:57.756Z,1.80
2023-01-09T08:14:24.149Z,1.90
2023-01-09T08:16:50.571Z,2.08
2023-01-09T08:19:16.911Z,1.55
2023-01-09T08:21:43.212Z,1.60
2023-01-09T08:24:09.587Z,1.60
2023-01-09T08:26:35.893Z,2.00
2023-01-09T08:29:02.189Z,1.60
2023-01-09T08:31:28.585Z,1.70
2023-01-09T08:33:55.032Z,1.90
2023-01-09T08:36:21.428Z,1.40
2023-01-09T08:38:47.759Z,1.70
2023-01-09T08:41:32.828Z,1.42
2023-01-09T08:44:17.803Z,1.80
2023-01-09T08:47:02.862Z,1.63
2023-01-09T08:49:29.180Z,2.20
2023-01-09T08:51:55.497Z,1.80
2023-01-09T08:54:21.847Z,2.70
2023-01-09T08:56:48.398Z,2.08
2023-01-09T08:59:15.701Z,2.03
2023-01-09T09:01:42.106Z,1.70
2023-01-09T09:04:08.563Z,1.77
2023-01-09T09:06:34.895Z,1.90
2023-01-09T09:09:03.237Z,2.17
2023-01-09T09:11:30.397Z,1.98
2023-01-09T09:13:57.126Z,1.63
2023-01-09T09:16:24.409Z,1.48
2023-01-09T09:18:50.831Z,1.50
2023-01-09T09:21:17.190Z,1.30
2023-01-09T09:23:46.614Z,1.27
2023-01-09T09:26:12.928Z,1.40
2023-01-09T09:28:39.280Z,1.48
2023-01-09T09:31:06.367Z,1.50
2023-01-09T09:33:32.690Z,1.20
2023-01-09T09:35:59.412Z,1.30
2023-01-09T09:38:25.895Z,1.30
2023-01-09T09:40:52.261Z,1.40
2023-01-09T09:43:46.485Z,1.33
2023-01-09T09:46:19.356Z,1.80
2023-01-09T09:48:49.953Z,1.30
2023-01-09T09:51:22.813Z,1.30
2023-01-09T09:54:07.976Z,1.48
2023-01-09T09:56:39.111Z,1.20
2023-01-09T09:59:10.051Z,1.30
2023-01-09T10:01:41.332Z,1.25
2023-01-09T10:04:15.090Z,1.30
2023-01-09T10:06:43.633Z,1.23
2023-01-09T10:09:32.169Z,1.63
2023-01-09T10:12:05.307Z,1.40
2023-01-09T10:14:32.086Z,1.40
2023-01-09T10:17:18.913Z,1.40
2023-01-09T10:19:48.303Z,1.30
2023-01-09T10:22:39.679Z,1.58
2023-01-09T10:25:06.704Z,1.60
2023-01-09T10:27:33.012Z,1.67
2023-01-09T10:30:21.556Z,1.20
2023-01-09T10:32:57.979Z,1.48
2023-01-09T10:35:42.770Z,1.30
2023-01-09T10:38:19.820Z,1.70
2023-01-09T10:40:51.210Z,1.80
2023-01-09T10:43:34.930Z,1.75
2023-01-09T10:46:03.536Z,2.03
2023-01-09T10:48:36.959Z,1.70
2023-01-09T10:51:23.583Z,1.73
2023-01-09T10:53:54.447Z,1.92
2023-01-09T10:56:28.204Z,1.70
2023-01-09T10:58:55.083Z,1.50
2023-01-09T11:01:25.784Z,1.40
2023-01-09T11:03:52.177Z,1.40
2023-01-09T11:06:25.727Z,1.50
2023-01-09T11:08:54.296Z,1.50
2023-01-09T11:11:42.889Z,1.52
2023-01-09T11:14:27.545Z,1.40
2023-01-09T11:16:55.499Z,1.73
2023-01-09T11:19:22.578Z,2.22
2023-01-09T11:21:49.124Z,1.60
2023-01-09T11:24:18.550Z,1.70
2023-01-09T11:26:45.719Z,1.45
2023-01-09T11:29:24.427Z,2.53
2023-01-09T11:31:53.479Z,3.45
2023-01-09T11:34:21.514Z,2.25
2023-01-09T11:36:48.563Z,1.80
2023-01-09T11:39:21.629Z,1.77
2023-01-09T11:41:52.343Z,1.85
2023-01-09T11:44:18.699Z,1.83
2023-01-09T11:46:46.560Z,1.52
2023-01-09T11:49:13.641Z,1.67
2023-01-09T11:51:45.163Z,1.80
2023-01-09T11:54:20.788Z,1.60
2023-01-09T11:56:47.941Z,2.10
2023-01-09T11:59:16.596Z,1.85
2023-01-09T12:02:06.271Z,2.13
2023-01-09T12:04:32.608Z,1.75
2023-01-09T12:07:17.800Z,1.88
2023-01-09T12:10:19.786Z,1.30
2023-01-09T12:13:00.947Z,1.70
2023-01-09T12:15:38.563Z,1.65
2023-01-09T12:18:23.646Z,1.65
2023-01-09T12:20:56.893Z,1.80
2023-01-09T12:23:27.851Z,2.03
2023-01-09T12:26:12.919Z,1.70
2023-01-09T12:28:42.294Z,1.80
2023-01-09T12:31:08.592Z,1.80
2023-01-09T12:34:00.479Z,1.88
2023-01-09T12:36:38.397Z,2.22
2023-01-09T12:39:20.012Z,1.50
2023-01-09T12:42:05.107Z,1.60
2023-01-09T12:44:35.907Z,1.85
2023-01-09T12:47:11.893Z,1.83
2023-01-09T12:49:45.991Z,1.65
2023-01-09T12:52:39.958Z,1.70
2023-01-09T12:55:17.834Z,1.75
2023-01-09T12:57:45.215Z,1.70
2023-01-09T13:00:21.971Z,1.88
2023-01-09T13:03:00.382Z,1.75
2023-01-09T13:05:39.626Z,1.45
2023-01-09T13:08:25.456Z,2.97
2023-01-09T13:11:19.361Z,1.90
2023-01-09T13:13:48.517Z,1.92
2023-01-09T13:16:20.496Z,2.10
2023-01-09T13:18:49.747Z,1.73
2023-01-09T13:21:16.691Z,1.58
2023-01-09T13:23:55.229Z,2.00
2023-01-09T13:26:21.532Z,1.60
2023-01-09T13:28:59.684Z,1.50
2023-01-09T13:31:32.046Z,1.48
2023-01-09T13:33:58.963Z,1.85
2023-01-09T13:36:30.131Z,1.80
2023-01-09T13:38:57.628Z,1.70
2023-01-09T13:41:45.806Z,1.73
2023-01-09T13:44:18.245Z,1.60
2023-01-09T13:46:46.352Z,1.35
2023-01-09T13:49:34.646Z,1.50
2023-01-09T13:52:05.487Z,1.45
2023-01-09T13:54:47.157Z,1.40
2023-01-09T13:57:25.336Z,1.30
2023-01-09T13:59:51.917Z,1.17
2023-01-09T14:02:33.619Z,1.20
2023-01-09T14:05:00.390Z,1.20
2023-01-09T14:07:30.902Z,1.52
2023-01-09T14:10:01.640Z,1.23
2023-01-09T14:12:30.276Z,1.10
2023-01-09T14:14:58.442Z,1.33
2023-01-09T14:17:35.350Z,1.40
2023-01-09T14:20:04.199Z,1.33
2023-01-09T14:22:38.045Z,1.50
2023-01-09T14:25:19.600Z,1.20
2023-01-09T14:28:08.997Z,1.42
2023-01-09T14:30:36.665Z,1.40
2023-01-09T14:33:04.299Z,1.25
2023-01-09T14:35:34.968Z,1.40
2023-01-09T14:38:17.308Z,1.20
2023-01-09T14:40:55.880Z,1.30
2023-01-09T14:43:26.831Z,1.00
2023-01-09T14:45:58.738Z,1.30
2023-01-09T14:48:26.384Z,1.10
2023-01-09T14:50:55.798Z,1.15
2023-01-09T14:53:22.211Z,1.10
2023-01-09T14:55:53.361Z,1.30
2023-01-09T14:58:20.706Z,1.13
2023-01-09T15:01:06.010Z,1.33
2023-01-09T15:03:36.378Z,1.23
2023-01-09T15:06:03.291Z,1.15
2023-01-09T15:08:29.746Z,1.20
2023-01-09T15:10:57.037Z,1.50
2023-01-09T15:13:29.180Z,1.13
2023-01-09T15:15:55.608Z,1.30
2023-01-09T15:18:27.178Z,1.30
2023-01-09T15:20:55.871Z,1.33
2023-01-09T15:23:24.528Z,1.10
2023-01-09T15:25:51.255Z,1.08
2023-01-09T15:28:22.959Z,1.17
2023-01-09T15:31:09.164Z,1.38
2023-01-09T15:33:38.676Z,1.20
2023-01-09T15:36:07.939Z,1.27
2023-01-09T15:38:36.022Z,1.40
2023-01-09T15:41:11.772Z,1.25
2023-01-09T15:43:43.342Z,1.10
2023-01-09T15:46:14.991Z,1.20
2023-01-09T15:48:41.538Z,1.45
2023-01-09T15:51:10.457Z,1.42
2023-01-09T15:53:36.832Z,1.35
2023-01-09T15:56:12.401Z,1.60
2023-01-09T15:58:39.786Z,1.35
2023-01-09T16:01:07.886Z,1.95
2023-01-09T16:03:36.739Z,1.30
2023-01-09T16:06:07.702Z,1.73
2023-01-09T16:08:39.544Z,2.30
2023-01-09T16:11:10.993Z,1.50
2023-01-09T16:13:44.734Z,1.90
2023-01-09T16:16:11.653Z,1.92
2023-01-09T16:18:39.249Z,1.58
2023-01-09T16:21:11.762Z,1.60
2023-01-09T16:23:38.061Z,1.50
2023-01-09T16:26:12.311Z,1.52
2023-01-09T16:28:40.934Z,1.40
2023-01-09T16:31:10.248Z,1.77
2023-01-09T16:33:44.091Z,1.40
2023-01-09T16:38:43.511Z,1.55
2023-01-09T16:41:40.488Z,1.50
2023-01-09T16:44:09.506Z,1.63
2023-01-09T16:46:38.192Z,1.75
2023-01-09T16:49:15.168Z,1.80
2023-01-09T16:51:41.483Z,3.00
2023-01-09T16:54:08.029Z,3.00
2023-01-09T16:56:38.524Z,2.75
2023-01-09T16:59:04.840Z,2.17
2023-01-09T17:01:31.176Z,2.03
2023-01-09T17:03:57.513Z,4.03
2023-01-09T17:06:31.765Z,2.55
2023-01-09T17:08:58.356Z,2.70
2023-01-09T17:11:31.115Z,2.80
2023-01-09T17:13:57.927Z,1.60
2023-01-09T17:16:26.440Z,1.30
2023-01-09T17:18:52.815Z,1.17
2023-01-09T17:21:23.636Z,1.65
2023-01-09T17:24:08.718Z,1.83
2023-01-09T17:26:56.962Z,1.50
2023-01-09T17:29:23.437Z,1.20
2023-01-09T17:31:49.798Z,1.10
2023-01-09T17:34:16.083Z,1.15
2023-01-09T17:36:43.275Z,1.02
2023-01-09T17:39:12.836Z,1.17
2023-01-09T17:41:40.313Z,1.08
2023-01-09T17:44:06.631Z,1.00
2023-01-09T17:46:34.613Z,1.30
2023-01-09T17:49:01.873Z,1.48
2023-01-09T17:51:29.297Z,1.27
2023-01-09T17:53:57.027Z,1.95
2023-01-09T17:56:25.083Z,2.08
2023-01-09T17:58:51.436Z,1.38
2023-01-09T18:01:18.665Z,1.85
2023-01-09T18:03:46.882Z,1.25
2023-01-09T18:06:13.494Z,1.58
2023-01-09T18:08:40.243Z,1.75
2023-01-09T18:11:07.897Z,1.60
2023-01-09T18:13:34.277Z,1.50
2023-01-09T18:16:01.040Z,1.40
2023-01-09T18:18:27.959Z,1.38
2023-01-09T18:20:54.359Z,1.55
2023-01-09T18:23:20.748Z,1.38
2023-01-09T18:25:48.206Z,1.50
2023-01-09T18:28:15.471Z,1.40
2023-01-09T18:30:45.031Z,1.75
2023-01-09T18:33:12.201Z,1.48
2023-01-09T18:35:38.860Z,1.30
2023-01-09T18:38:07.060Z,1.35
2023-01-09T18:40:33.461Z,1.42
2023-01-09T18:43:00.076Z,1.65
2023-01-09T18:45:26.488Z,1.70
2023-01-09T18:47:52.972Z,1.55
2023-01-09T18:50:19.400Z,1.50
2023-01-09T18:52:45.755Z,1.70
2023-01-09T18:55:12.094Z,1.27
2023-01-09T18:57:38.536Z,1.27
2023-01-09T19:00:05.247Z,1.40
2023-01-09T19:02:31.690Z,1.60
2023-01-09T19:04:57.967Z,1.65
2023-01-09T19:07:24.391Z,1.60
2023-01-09T19:09:50.720Z,1.60
2023-01-09T19:12:17.104Z,3.08
2023-01-09T19:14:43.425Z,2.28
2023-01-09T19:17:10.942Z,2.40
2023-01-09T19:19:37.392Z,1.83
2023-01-09T19:22:04.071Z,1.70
2023-01-09T19:24:32.055Z,1.67
2023-01-09T19:26:59.088Z,1.88
2023-01-09T19:29:25.943Z,2.03
2023-01-09T19:31:53.109Z,1.90
2023-01-09T19:34:19.738Z,1.80
2023-01-09T19:36:47.591Z,1.73
2023-01-09T19:39:14.084Z,1.40
2023-01-09T19:41:40.358Z,1.58
2023-01-09T19:44:06.721Z,4.28
2023-01-09T19:46:36.454Z,2.47
2023-01-09T19:49:04.940Z,2.08
2023-01-09T19:51:32.143Z,1.42
2023-01-09T19:56:27.058Z,1.80
2023-01-09T19:58:54.426Z,1.60
2023-01-09T20:01:23.716Z,1.60
2023-01-09T20:03:50.654Z,1.65
2023-01-09T20:06:18.951Z,1.38
2023-01-09T20:08:47.480Z,2.00
2023-01-09T20:11:14.066Z,1.70
2023-01-09T20:13:40.478Z,1.60
2023-01-09T20:16:07.312Z,1.50
2023-01-09T20:18:34.202Z,1.60
2023-01-09T20:21:01.748Z,2.08
2023-01-09T20:23:28.455Z,1.75
2023-01-09T20:25:55.551Z,1.83
2023-01-09T20:28:22.489Z,1.90
2023-01-09T20:30:50.381Z,2.00
2023-01-09T20:33:16.917Z,1.70
2023-01-09T20:35:43.248Z,1.92
2023-01-09T20:38:09.988Z,2.03
2023-01-09T20:40:36.984Z,2.00
2023-01-09T20:43:03.562Z,1.92
2023-01-09T20:45:30.135Z,1.90
2023-01-09T20:47:56.518Z,2.33
2023-01-09T20:50:22.825Z,1.60
2023-01-09T20:52:49.123Z,1.60
2023-01-09T20:55:16.538Z,2.05
2023-01-09T20:57:42.870Z,1.75
2023-01-09T21:00:09.854Z,2.35
2023-01-09T21:02:36.500Z,2.58
2023-01-09T21:05:03.114Z,2.65
2023-01-09T21:07:29.563Z,2.40
2023-01-09T21:09:56.027Z,2.65
2023-01-09T21:12:28.390Z,2.65
2023-01-09T21:14:54.911Z,2.70
2023-01-09T21:17:21.643Z,3.10
2023-01-09T21:19:49.659Z,2.83
2023-01-09T21:22:16.416Z,2.45
2023-01-09T21:24:42.729Z,2.72
2023-01-09T21:27:09.114Z,2.67
2023-01-09T21:29:35.458Z,2.60
2023-01-09T21:32:01.895Z,2.20
2023-01-09T21:34:28.231Z,2.58
2023-01-09T21:36:54.580Z,2.88
2023-01-09T21:39:20.925Z,2.63
2023-01-09T21:42:05.980Z,2.60
2023-01-09T21:44:51.203Z,2.45
2023-01-09T21:47:17.595Z,3.28
2023-01-09T21:49:44.401Z,3.20
2023-01-09T21:52:12.763Z,2.88
2023-01-09T21:54:39.592Z,2.70
2023-01-09T21:57:06.503Z,2.60
2023-01-09T21:59:32.895Z,2.72
2023-01-09T22:01:59.656Z,3.08
2023-01-09T22:04:28.137Z,3.00
2023-01-09T22:06:54.891Z,2.72
2023-01-09T22:09:21.231Z,3.10
2023-01-09T22:11:47.581Z,2.90
2023-01-09T22:14:15.060Z,3.10
2023-01-09T22:16:41.824Z,2.58
2023-01-09T22:19:11.821Z,3.00
2023-01-09T22:21:38.525Z,2.60
2023-01-09T22:24:06.237Z,3.47
2023-01-09T22:26:33.529Z,3.65
2023-01-09T22:28:59.921Z,2.90
2023-01-09T22:31:29.028Z,3.10
2023-01-09T22:33:57.639Z,2.95
2023-01-09T22:36:24.605Z,3.47
2023-01-09T22:38:53.248Z,2.78
2023-01-09T22:41:19.624Z,2.90
2023-01-09T22:43:45.978Z,2.33
2023-01-09T22:46:12.650Z,2.63
2023-01-09T22:48:40.145Z,3.20
2023-01-09T22:51:08.498Z,2.30
2023-01-09T22:53:35.971Z,2.38
2023-01-09T22:56:03.702Z,2.40
2023-01-09T22:58:31.416Z,2.30
2023-01-09T23:00:58.008Z,2.05
2023-01-09T23:03:24.859Z,2.25
2023-01-09T23:06:04.604Z,2.20
2023-01-09T23:08:31.462Z,2.10
2023-01-09T23:10:57.940Z,2.30
2023-01-09T23:13:24.449Z,1.85
2023-01-09T23:15:51.117Z,1.75
2023-01-09T23:18:17.442Z,1.60
2023-01-09T23:20:53.533Z,1.65
2023-01-09T23:23:20.984Z,1.80
2023-01-09T23:25:50.990Z,1.60
2023-01-09T23:28:17.683Z,1.75
2023-01-09T23:30:44.126Z,1.70
2023-01-09T23:33:10.534Z,1.55
2023-01-09T23:35:37.231Z,1.92
2023-01-09T23:38:03.614Z,1.20
2023-01-09T23:40:30.290Z,1.40
2023-01-09T23:43:08.920Z,1.52
2023-01-09T23:45:36.390Z,1.60
2023-01-09T23:48:03.921Z,1.50
2023-01-09T23:50:30.502Z,1.60
2023-01-09T23:52:56.917Z,1.45
2023-01-09T23:55:23.339Z,1.40
2023-01-09T23:57:54.289Z,1.63
